createdAt,value
2022-12-31T00:00:51.892Z,0.67
2022-12-31T00:03:19.894Z,0.77
2022-12-31T00:05:47.820Z,0.80
2022-12-31T00:08:15.572Z,0.60
2022-12-31T00:10:43.464Z,0.60
2022-12-31T00:13:12.567Z,0.63
2022-12-31T00:15:41.564Z,0.70
2022-12-31T00:18:11.390Z,0.70
2022-12-31T00:20:41.292Z,0.60
2022-12-31T00:23:10.434Z,0.60
2022-12-31T00:25:38.679Z,0.90
2022-12-31T00:28:06.644Z,0.50
2022-12-31T00:30:35.416Z,0.60
2022-12-31T00:33:03.303Z,0.70
2022-12-31T00:35:34.566Z,0.50
2022-12-31T00:38:02.328Z,0.50
2022-12-31T00:40:30.215Z,0.57
2022-12-31T00:42:58.117Z,0.60
2022-12-31T00:45:25.913Z,0.60
2022-12-31T00:47:53.645Z,0.60
2022-12-31T00:50:21.479Z,0.50
2022-12-31T00:52:50.621Z,1.05
2022-12-31T00:55:18.399Z,0.52
2022-12-31T00:57:46.229Z,0.50
2022-12-31T01:00:15.419Z,0.60
2022-12-31T01:02:43.291Z,0.70
2022-12-31T01:05:11.208Z,0.50
2022-12-31T01:07:39.256Z,0.77
2022-12-31T01:10:09.603Z,0.60
2022-12-31T01:12:37.520Z,0.70
2022-12-31T01:15:06.176Z,0.50
2022-12-31T01:17:35.279Z,0.95
2022-12-31T01:20:03.173Z,0.65
2022-12-31T01:22:30.937Z,1.25
2022-12-31T01:24:58.680Z,0.50
2022-12-31T01:27:27.844Z,0.63
2022-12-31T01:29:55.623Z,0.60
2022-12-31T01:32:23.536Z,0.60
2022-12-31T01:34:51.428Z,0.60
2022-12-31T01:37:19.183Z,0.50
2022-12-31T01:39:46.972Z,0.50
2022-12-31T01:42:14.879Z,0.70
2022-12-31T01:44:55.384Z,0.60
2022-12-31T01:47:39.119Z,0.60
2022-12-31T01:50:15.875Z,0.80
2022-12-31T01:52:47.099Z,0.60
2022-12-31T01:55:18.784Z,0.50
2022-12-31T01:57:50.568Z,0.50
2022-12-31T02:00:20.529Z,0.90
2022-12-31T02:02:48.447Z,0.60
2022-12-31T02:05:23.173Z,0.52
2022-12-31T02:07:51.612Z,0.55
2022-12-31T02:10:19.555Z,0.53
2022-12-31T02:12:47.827Z,1.20
2022-12-31T02:15:16.029Z,0.70
2022-12-31T02:18:04.398Z,0.50
2022-12-31T02:21:13.676Z,0.40
2022-12-31T02:24:19.120Z,0.52
2022-12-31T02:26:56.570Z,0.60
2022-12-31T02:29:59.965Z,0.50
2022-12-31T02:32:37.948Z,0.52
2022-12-31T02:35:11.672Z,0.50
2022-12-31T02:37:41.662Z,0.50
2022-12-31T02:40:15.202Z,0.50
2022-12-31T02:42:42.984Z,0.40
2022-12-31T02:45:15.151Z,0.40
2022-12-31T02:47:58.450Z,0.60
2022-12-31T02:50:39.678Z,0.47
2022-12-31T02:53:21.236Z,0.90
2022-12-31T02:55:56.076Z,0.50
2022-12-31T02:58:51.272Z,1.20
2022-12-31T03:01:44.599Z,0.50
2022-12-31T03:04:33.141Z,0.55
2022-12-31T03:07:02.612Z,0.50
2022-12-31T03:09:30.403Z,0.63
2022-12-31T03:12:15.886Z,0.80
2022-12-31T03:14:43.757Z,0.50
2022-12-31T03:17:11.701Z,0.60
2022-12-31T03:19:58.567Z,0.50
2022-12-31T03:22:29.034Z,0.50
2022-12-31T03:25:16.860Z,0.50
2022-12-31T03:27:44.941Z,0.50
2022-12-31T03:30:14.053Z,0.50
2022-12-31T03:32:44.407Z,0.50
2022-12-31T03:35:15.236Z,0.60
2022-12-31T03:37:43.166Z,1.10
2022-12-31T03:40:13.789Z,1.08
2022-12-31T03:42:42.093Z,0.50
2022-12-31T03:45:11.777Z,0.50
2022-12-31T03:47:39.708Z,0.52
2022-12-31T03:50:09.019Z,0.47
2022-12-31T03:52:38.712Z,0.60
2022-12-31T03:55:08.129Z,0.50
2022-12-31T03:57:36.207Z,0.43
2022-12-31T04:00:04.983Z,0.50
2022-12-31T04:02:32.892Z,0.50
2022-12-31T04:05:00.749Z,0.40
2022-12-31T04:07:28.652Z,0.50
2022-12-31T04:09:58.873Z,0.50
2022-12-31T04:12:26.699Z,0.50
2022-12-31T04:14:54.483Z,0.70
2022-12-31T04:17:22.281Z,0.60
2022-12-31T04:19:50.047Z,0.50
2022-12-31T04:22:17.893Z,0.40
2022-12-31T04:24:45.784Z,0.60
2022-12-31T04:27:15.323Z,0.50
2022-12-31T04:29:43.063Z,0.88
2022-12-31T04:32:11.020Z,0.70
2022-12-31T04:34:38.907Z,0.50
2022-12-31T04:37:06.743Z,0.40
2022-12-31T04:39:34.553Z,0.73
2022-12-31T04:42:02.429Z,0.50
2022-12-31T04:44:34.762Z,0.50
2022-12-31T04:47:02.627Z,0.60
2022-12-31T04:49:30.375Z,0.50
2022-12-31T04:51:58.249Z,0.40
2022-12-31T04:54:26.194Z,0.57
2022-12-31T04:56:53.982Z,0.65
2022-12-31T04:59:22.378Z,0.47
2022-12-31T05:01:51.646Z,0.60
2022-12-31T05:04:19.439Z,0.40
2022-12-31T05:06:47.213Z,0.57
2022-12-31T05:09:15.019Z,0.50
2022-12-31T05:11:42.808Z,0.60
2022-12-31T05:14:10.926Z,0.50
2022-12-31T05:16:38.752Z,0.50
2022-12-31T05:19:09.481Z,0.70
2022-12-31T05:21:37.581Z,0.50
2022-12-31T05:24:06.028Z,0.60
2022-12-31T05:26:33.811Z,0.50
2022-12-31T05:29:01.614Z,0.77
2022-12-31T05:31:29.425Z,0.57
2022-12-31T05:33:57.458Z,0.50
2022-12-31T05:36:26.722Z,0.50
2022-12-31T05:38:54.564Z,0.60
2022-12-31T05:41:22.319Z,0.77
2022-12-31T05:43:51.451Z,0.73
2022-12-31T05:46:19.221Z,0.50
2022-12-31T05:48:47.043Z,0.50
2022-12-31T05:51:14.915Z,0.70
2022-12-31T05:53:44.054Z,0.57
2022-12-31T05:56:11.799Z,0.45
2022-12-31T05:58:39.565Z,0.50
2022-12-31T06:01:07.385Z,0.82
2022-12-31T06:03:35.208Z,0.60
2022-12-31T06:06:03.431Z,0.40
2022-12-31T06:08:31.265Z,0.80
2022-12-31T06:11:00.539Z,0.75
2022-12-31T06:13:28.653Z,0.52
2022-12-31T06:15:56.514Z,0.50
2022-12-31T06:18:24.472Z,0.50
2022-12-31T06:20:52.289Z,0.70
2022-12-31T06:23:20.121Z,0.55
2022-12-31T06:25:47.876Z,0.60
2022-12-31T06:28:20.373Z,0.40
2022-12-31T06:30:48.976Z,0.60
2022-12-31T06:33:16.855Z,1.02
2022-12-31T06:35:44.624Z,0.73
2022-12-31T06:38:12.367Z,0.50
2022-12-31T06:40:40.253Z,0.90
2022-12-31T06:43:08.020Z,0.55
2022-12-31T06:45:37.254Z,0.50
2022-12-31T06:48:05.444Z,0.80
2022-12-31T06:50:33.189Z,0.70
2022-12-31T06:53:01.233Z,0.90
2022-12-31T06:55:29.655Z,1.40
2022-12-31T06:57:57.971Z,0.55
2022-12-31T07:00:26.078Z,0.50
2022-12-31T07:03:14.825Z,0.90
2022-12-31T07:05:47.761Z,0.57
2022-12-31T07:08:27.428Z,0.60
2022-12-31T07:11:01.616Z,0.70
2022-12-31T07:13:54.568Z,0.63
2022-12-31T07:16:33.166Z,0.60
2022-12-31T07:19:13.251Z,1.00
2022-12-31T07:21:42.810Z,0.63
2022-12-31T07:24:12.221Z,0.80
2022-12-31T07:26:56.817Z,0.70
2022-12-31T07:29:39.329Z,0.98
2022-12-31T07:32:20.605Z,0.63
2022-12-31T07:34:56.768Z,0.60
2022-12-31T07:37:34.480Z,0.95
2022-12-31T07:40:10.630Z,0.73
2022-12-31T07:42:46.247Z,0.50
2022-12-31T07:45:20.231Z,0.60
2022-12-31T07:47:48.521Z,4.20
2022-12-31T07:50:19.773Z,3.20
2022-12-31T07:52:48.123Z,1.40
2022-12-31T07:55:16.513Z,1.00
2022-12-31T07:57:52.592Z,29.83
2022-12-31T08:00:21.020Z,26.48
2022-12-31T08:03:02.922Z,5.43
2022-12-31T08:05:38.876Z,1.45
2022-12-31T08:08:17.017Z,0.93
2022-12-31T08:10:52.630Z,0.80
2022-12-31T08:13:20.848Z,1.87
2022-12-31T08:15:49.308Z,1.25
2022-12-31T08:18:17.667Z,1.60
2022-12-31T08:20:59.537Z,1.05
2022-12-31T08:23:41.593Z,1.20
2022-12-31T08:26:26.336Z,7.82
2022-12-31T08:29:30.194Z,2.43
2022-12-31T08:32:04.415Z,4.47
2022-12-31T08:34:39.430Z,1.10
2022-12-31T08:37:14.275Z,0.77
2022-12-31T08:39:55.560Z,1.00
2022-12-31T08:42:30.071Z,2.30
2022-12-31T08:45:08.891Z,0.77
2022-12-31T08:47:46.629Z,0.70
2022-12-31T08:50:16.364Z,0.90
2022-12-31T08:52:46.592Z,0.70
2022-12-31T08:55:16.888Z,0.60
2022-12-31T08:57:54.105Z,0.80
2022-12-31T09:00:22.862Z,0.57
2022-12-31T09:03:15.277Z,0.63
2022-12-31T09:05:54.564Z,1.27
2022-12-31T09:08:35.577Z,1.00
2022-12-31T09:11:17.681Z,1.02
2022-12-31T09:14:14.516Z,1.33
2022-12-31T09:16:52.488Z,1.23
2022-12-31T09:19:20.397Z,0.60
2022-12-31T09:21:48.714Z,0.80
2022-12-31T09:24:18.566Z,0.63
2022-12-31T09:26:58.234Z,2.10
2022-12-31T09:29:36.439Z,0.65
2022-12-31T09:32:14.728Z,0.50
2022-12-31T09:34:48.419Z,0.60
2022-12-31T09:37:21.509Z,0.57
2022-12-31T09:39:51.089Z,1.00
2022-12-31T09:42:48.770Z,1.98
2022-12-31T09:45:44.259Z,0.77
2022-12-31T09:48:50.784Z,2.08
2022-12-31T09:51:31.120Z,3.15
2022-12-31T09:54:29.001Z,2.50
2022-12-31T09:57:40.660Z,0.75
2022-12-31T10:00:16.364Z,2.80
2022-12-31T10:02:58.478Z,0.82
2022-12-31T10:05:57.882Z,1.35
2022-12-31T10:08:47.776Z,1.05
2022-12-31T10:11:20.810Z,0.75
2022-12-31T10:13:59.140Z,1.35
2022-12-31T10:16:49.573Z,0.60
2022-12-31T10:19:43.340Z,0.57
2022-12-31T10:22:34.348Z,1.98
2022-12-31T10:25:19.646Z,0.70
2022-12-31T10:27:55.663Z,0.70
2022-12-31T10:30:26.628Z,3.10
2022-12-31T10:33:06.852Z,0.60
2022-12-31T10:35:41.963Z,0.60
2022-12-31T10:38:28.068Z,0.50
2022-12-31T10:41:34.624Z,0.60
2022-12-31T10:44:37.082Z,0.63
2022-12-31T10:47:40.380Z,0.60
2022-12-31T10:50:48.524Z,1.23
2022-12-31T10:53:47.810Z,2.78
2022-12-31T10:57:06.955Z,1.10
2022-12-31T11:00:22.764Z,0.80
2022-12-31T11:03:29.302Z,0.68
2022-12-31T11:06:57.654Z,0.70
2022-12-31T11:10:11.820Z,0.90
2022-12-31T11:13:12.386Z,0.60
2022-12-31T11:15:57.720Z,0.63
2022-12-31T11:18:32.023Z,0.60
2022-12-31T11:21:12.993Z,0.55
2022-12-31T11:23:49.555Z,0.60
2022-12-31T11:26:30.355Z,0.60
2022-12-31T11:29:17.540Z,2.10
2022-12-31T11:32:06.496Z,0.70
2022-12-31T11:35:04.613Z,1.10
2022-12-31T11:37:45.595Z,1.15
2022-12-31T11:40:40.344Z,0.90
2022-12-31T11:43:21.889Z,0.70
2022-12-31T11:46:09.209Z,1.23
2022-12-31T11:48:45.844Z,1.50
2022-12-31T11:51:35.012Z,1.10
2022-12-31T11:54:32.718Z,2.30
2022-12-31T11:57:06.633Z,1.10
2022-12-31T11:59:35.952Z,1.30
2022-12-31T12:02:19.044Z,0.60
2022-12-31T12:04:51.047Z,1.45
2022-12-31T12:07:20.325Z,1.60
2022-12-31T12:09:49.117Z,1.50
2022-12-31T12:12:20.031Z,1.35
2022-12-31T12:14:53.467Z,0.70
2022-12-31T12:17:32.000Z,1.50
2022-12-31T12:20:04.935Z,1.25
2022-12-31T12:22:33.136Z,1.85
2022-12-31T12:25:06.297Z,1.98
2022-12-31T12:27:37.049Z,1.35
2022-12-31T12:30:20.584Z,1.20
2022-12-31T12:32:54.106Z,0.77
2022-12-31T12:35:27.002Z,1.10
2022-12-31T12:38:03.119Z,3.42
2022-12-31T12:40:34.053Z,2.77
2022-12-31T12:43:03.245Z,1.73
2022-12-31T12:45:47.800Z,1.00
2022-12-31T12:48:26.570Z,1.17
2022-12-31T12:50:54.485Z,1.65
2022-12-31T12:53:33.361Z,1.85
2022-12-31T12:56:13.196Z,2.17
2022-12-31T12:58:56.636Z,1.80
2022-12-31T13:01:36.850Z,0.93
2022-12-31T13:04:36.229Z,1.20
2022-12-31T13:07:17.263Z,1.70
2022-12-31T13:10:07.825Z,1.30
2022-12-31T13:13:13.869Z,2.20
2022-12-31T13:15:36.892Z,1.20
2022-12-31T13:18:18.572Z,1.48
2022-12-31T13:20:51.785Z,2.05
2022-12-31T13:23:27.538Z,1.35
2022-12-31T13:26:05.777Z,2.00
2022-12-31T13:28:35.050Z,1.30
2022-12-31T13:31:07.327Z,1.42
2022-12-31T13:33:40.826Z,1.65
2022-12-31T13:36:10.520Z,4.38
2022-12-31T13:38:42.448Z,2.10
2022-12-31T13:41:15.835Z,3.93
2022-12-31T13:43:51.239Z,1.50
2022-12-31T13:46:24.527Z,1.00
2022-12-31T13:48:57.054Z,1.58
2022-12-31T13:51:35.093Z,0.97
2022-12-31T13:54:07.543Z,2.88
2022-12-31T13:56:38.488Z,5.63
2022-12-31T13:59:15.756Z,5.38
2022-12-31T14:01:50.922Z,4.60
2022-12-31T14:04:26.163Z,1.73
2022-12-31T14:06:58.800Z,1.92
2022-12-31T14:09:29.661Z,3.45
2022-12-31T14:12:18.619Z,1.75
2022-12-31T14:14:54.433Z,1.40
2022-12-31T14:17:29.657Z,2.22
2022-12-31T14:20:05.696Z,1.87
2022-12-31T14:22:41.896Z,4.32
2022-12-31T14:25:20.699Z,8.43
2022-12-31T14:27:49.966Z,3.88
2022-12-31T14:30:21.176Z,5.50
2022-12-31T14:33:16.351Z,2.88
2022-12-31T14:36:03.944Z,3.35
2022-12-31T14:38:44.958Z,3.70
2022-12-31T14:41:27.376Z,2.15
2022-12-31T14:44:06.552Z,1.90
2022-12-31T14:46:40.784Z,2.72
2022-12-31T14:49:25.880Z,2.17
2022-12-31T14:51:55.002Z,3.20
2022-12-31T14:54:29.383Z,2.20
2022-12-31T14:56:57.300Z,2.97
2022-12-31T14:59:27.784Z,3.73
2022-12-31T15:01:57.982Z,5.72
2022-12-31T15:04:33.148Z,4.90
2022-12-31T15:07:10.407Z,11.73
2022-12-31T15:10:10.478Z,5.10
2022-12-31T15:12:59.177Z,8.07
2022-12-31T15:16:05.687Z,5.55
2022-12-31T15:18:48.808Z,5.95
2022-12-31T15:21:34.754Z,7.78
2022-12-31T15:24:14.666Z,10.13
2022-12-31T15:26:50.272Z,5.15
2022-12-31T15:29:33.079Z,4.32
2022-12-31T15:32:04.222Z,5.13
2022-12-31T15:34:34.776Z,4.50
2022-12-31T15:37:04.347Z,4.75
2022-12-31T15:39:44.350Z,7.80
2022-12-31T15:42:40.642Z,3.53
2022-12-31T15:45:17.223Z,7.20
2022-12-31T15:47:50.177Z,5.87
2022-12-31T15:50:22.510Z,5.90
2022-12-31T15:52:54.709Z,6.32
2022-12-31T15:55:31.754Z,6.43
2022-12-31T15:58:02.316Z,5.90
2022-12-31T16:00:44.415Z,5.57
2022-12-31T16:03:22.662Z,5.38
2022-12-31T16:05:51.035Z,5.70
2022-12-31T16:08:22.378Z,11.30
2022-12-31T16:10:51.700Z,10.00
2022-12-31T16:13:22.783Z,9.20
2022-12-31T16:15:53.097Z,14.20
2022-12-31T16:18:23.227Z,13.63
2022-12-31T16:20:51.804Z,10.85
2022-12-31T16:23:24.885Z,12.65
2022-12-31T16:25:58.597Z,15.13
2022-12-31T16:28:31.012Z,11.25
2022-12-31T16:31:02.922Z,16.45
2022-12-31T16:33:32.825Z,14.10
2022-12-31T16:36:02.366Z,19.50
2022-12-31T16:38:35.428Z,16.73
2022-12-31T16:41:19.845Z,15.27
2022-12-31T16:43:49.687Z,15.65
2022-12-31T16:46:20.877Z,14.50
2022-12-31T16:48:52.769Z,19.13
2022-12-31T16:51:23.351Z,18.52
2022-12-31T16:53:52.298Z,19.25
2022-12-31T16:56:25.951Z,15.98
2022-12-31T16:59:01.213Z,19.75
2022-12-31T17:01:32.540Z,17.83
2022-12-31T17:04:05.354Z,13.85
2022-12-31T17:06:33.622Z,17.95
2022-12-31T17:09:20.879Z,24.02
2022-12-31T17:11:55.623Z,18.95
2022-12-31T17:14:25.504Z,20.90
2022-12-31T17:17:03.257Z,22.95
2022-12-31T17:19:41.295Z,22.80
2022-12-31T17:22:14.036Z,20.27
2022-12-31T17:24:42.212Z,14.57
2022-12-31T17:27:11.730Z,19.45
2022-12-31T17:29:39.562Z,21.02
2022-12-31T17:32:26.507Z,23.77
2022-12-31T17:34:54.383Z,21.25
2022-12-31T17:37:26.892Z,24.70
2022-12-31T17:40:17.009Z,26.98
2022-12-31T17:42:47.559Z,29.08
2022-12-31T17:45:20.907Z,28.02
2022-12-31T17:47:52.398Z,27.80
2022-12-31T17:50:22.323Z,25.33
2022-12-31T17:52:50.210Z,29.75
2022-12-31T17:55:18.035Z,28.85
2022-12-31T17:57:52.160Z,30.38
2022-12-31T18:00:22.283Z,30.35
2022-12-31T18:02:50.211Z,26.63
2022-12-31T18:05:20.022Z,26.67
2022-12-31T18:07:48.318Z,26.08
2022-12-31T18:10:18.844Z,28.65
2022-12-31T18:12:49.598Z,27.15
2022-12-31T18:15:19.083Z,26.10
2022-12-31T18:17:46.940Z,30.30
2022-12-31T18:20:15.185Z,29.70
2022-12-31T18:22:44.442Z,29.13
2022-12-31T18:25:16.939Z,27.08
2022-12-31T18:27:44.747Z,24.48
2022-12-31T18:30:16.384Z,27.75
2022-12-31T18:32:45.389Z,27.02
2022-12-31T18:35:33.263Z,26.63
2022-12-31T18:38:04.127Z,25.92
2022-12-31T18:40:33.886Z,26.08
2022-12-31T18:43:05.070Z,26.15
2022-12-31T18:45:34.628Z,24.83
2022-12-31T18:48:02.552Z,23.67
2022-12-31T18:50:30.328Z,23.88
2022-12-31T18:52:58.162Z,23.20
2022-12-31T18:55:31.946Z,22.20
2022-12-31T18:57:59.787Z,21.88
2022-12-31T19:00:27.546Z,24.55
2022-12-31T19:02:56.735Z,23.48
2022-12-31T19:05:26.312Z,21.88
2022-12-31T19:07:54.812Z,22.77
2022-12-31T19:10:22.910Z,22.48
2022-12-31T19:12:50.893Z,20.65
2022-12-31T19:15:25.355Z,23.95
2022-12-31T19:17:53.530Z,24.65
2022-12-31T19:20:22.898Z,28.40
2022-12-31T19:22:50.681Z,29.33
2022-12-31T19:25:21.537Z,30.23
2022-12-31T19:27:50.009Z,29.77
2022-12-31T19:30:24.426Z,31.73
2022-12-31T19:32:53.379Z,31.10
2022-12-31T19:35:23.595Z,33.53
2022-12-31T19:37:53.304Z,33.60
2022-12-31T19:40:23.574Z,36.73
2022-12-31T19:42:53.258Z,37.85
2022-12-31T19:45:22.933Z,36.75
2022-12-31T19:47:51.196Z,35.38
2022-12-31T19:50:22.573Z,36.60
2022-12-31T19:52:51.727Z,36.35
2022-12-31T19:55:21.148Z,36.60
2022-12-31T19:57:49.753Z,36.55
2022-12-31T20:00:19.191Z,37.57
2022-12-31T20:02:49.012Z,40.08
2022-12-31T20:05:19.322Z,43.73
2022-12-31T20:07:48.512Z,43.03
2022-12-31T20:10:16.414Z,44.87
2022-12-31T20:12:44.861Z,45.97
2022-12-31T20:15:13.154Z,49.03
2022-12-31T20:17:40.963Z,49.33
2022-12-31T20:20:09.527Z,51.25
2022-12-31T20:22:37.340Z,49.90
2022-12-31T20:25:07.444Z,49.60
2022-12-31T20:27:35.646Z,51.65
2022-12-31T20:30:03.512Z,50.80
2022-12-31T20:32:31.793Z,52.97
2022-12-31T20:34:59.613Z,54.92
2022-12-31T20:37:27.393Z,54.00
2022-12-31T20:39:55.190Z,55.92
2022-12-31T20:42:24.378Z,55.45
2022-12-31T20:44:52.159Z,55.60
2022-12-31T20:47:19.917Z,59.05
2022-12-31T20:52:35.868Z,55.78
2022-12-31T20:55:03.643Z,57.28
2022-12-31T20:57:33.920Z,60.42
2022-12-31T21:00:01.957Z,59.03
2022-12-31T21:02:40.930Z,60.25
2022-12-31T21:05:10.668Z,59.78
2022-12-31T21:07:38.659Z,55.53
2022-12-31T21:10:07.217Z,57.53
2022-12-31T21:12:45.454Z,56.30
2022-12-31T21:15:14.049Z,57.65
2022-12-31T21:17:41.854Z,56.47
2022-12-31T21:20:10.941Z,54.03
2022-12-31T21:22:38.723Z,51.85
2022-12-31T21:25:07.157Z,50.63
2022-12-31T21:27:36.837Z,51.42
2022-12-31T21:30:20.781Z,50.15
2022-12-31T21:32:48.996Z,49.58
2022-12-31T21:35:43.392Z,48.13
2022-12-31T21:38:06.597Z,47.83
2022-12-31T21:40:35.227Z,45.92
2022-12-31T21:43:04.445Z,49.78
2022-12-31T21:45:32.353Z,47.20
2022-12-31T21:48:18.347Z,48.28
2022-12-31T21:50:48.784Z,46.88
2022-12-31T21:53:23.484Z,47.70
2022-12-31T21:56:11.511Z,49.30
2022-12-31T21:58:42.109Z,47.95
2022-12-31T22:01:33.737Z,49.65
2022-12-31T22:04:01.705Z,54.60
2022-12-31T22:06:29.559Z,55.08
2022-12-31T22:08:58.006Z,56.25
2022-12-31T22:11:27.514Z,57.42
2022-12-31T22:13:56.703Z,57.20
2022-12-31T22:16:24.643Z,59.35
2022-12-31T22:18:55.542Z,59.23
2022-12-31T22:21:25.196Z,53.90
2022-12-31T22:23:54.843Z,56.20
2022-12-31T22:26:24.774Z,55.90
2022-12-31T22:28:52.927Z,57.72
2022-12-31T22:31:24.327Z,53.90
2022-12-31T22:33:52.340Z,48.37
2022-12-31T22:36:21.874Z,42.28
2022-12-31T22:38:50.829Z,50.67
2022-12-31T22:41:21.090Z,47.83
2022-12-31T22:43:50.349Z,51.53
2022-12-31T22:46:20.102Z,50.55
2022-12-31T22:48:49.943Z,50.45
2022-12-31T22:51:18.597Z,51.33
2022-12-31T22:53:46.734Z,46.10
2022-12-31T22:56:16.681Z,51.60
2022-12-31T22:58:44.996Z,53.58
2022-12-31T23:01:18.032Z,48.72
2022-12-31T23:03:46.090Z,55.33
2022-12-31T23:06:15.630Z,58.55
2022-12-31T23:09:03.612Z,58.03
2022-12-31T23:11:30.568Z,64.85
2022-12-31T23:14:15.878Z,68.82
2022-12-31T23:17:29.474Z,92.32
2022-12-31T23:20:06.415Z,113.93
2022-12-31T23:22:52.983Z,144.33
2022-12-31T23:25:20.853Z,176.17
2022-12-31T23:27:48.639Z,172.48
2022-12-31T23:30:16.436Z,194.18
2022-12-31T23:32:44.260Z,216.98
2022-12-31T23:35:12.028Z,292.25
2022-12-31T23:37:41.142Z,302.27
2022-12-31T23:40:12.327Z,287.08
2022-12-31T23:42:42.233Z,322.03
2022-12-31T23:45:10.599Z,374.13
2022-12-31T23:47:39.212Z,372.77
2022-12-31T23:50:08.105Z,378.13
2022-12-31T23:52:35.930Z,421.47
2022-12-31T23:55:05.632Z,351.52
2022-12-31T23:57:33.406Z,360.65
